Time;durP1;ratioP1;P1;durP2;ratioP2;P2;SDS_P1;SDS_P2;PMS_P1;PMS_P2;Temp;Humidity;BMP_temperature;BMP_pressure;BME280_temperature;BME280_humidity;BME280_pressure;Samples;Min_cycle;Max_cycle;Signal;HPM_P1;HPM_P2
2022/04/12 00:01:53;;;;;;;32.13;19.23;;;;;;;0.62;85.76;100934.67;3548087;82;32365;-77
2022/04/12 00:06:54;;;;;;;34.47;17.40;;;;;;;0.58;86.07;100940.43;3540061;81;98789;-78
2022/04/12 00:11:55;;;;;;;35.37;17.00;;;;;;;0.52;86.12;100935.67;3530429;81;98996;-76
2022/04/12 00:19:02;;;;;;;31.13;16.10;;;;;;;0.47;86.22;100942.53;3541012;80;99361;-78
2022/04/12 00:21:58;;;;;;;31.50;16.57;;;;;;;0.43;86.65;100940.16;3544223;80;98854;-78
2022/04/12 00:26:59;;;;;;;31.20;15.53;;;;;;;0.36;86.64;100947.86;3528394;80;99273;-78
2022/04/12 00:32:00;;;;;;;31.63;17.47;;;;;;;0.30;86.61;100944.17;3548852;82;30055;-79
2022/04/12 00:37:01;;;;;;;32.20;16.30;;;;;;;0.28;86.93;100945.82;3539649;81;99108;-78
2022/04/12 00:42:02;;;;;;;30.87;18.50;;;;;;;0.24;87.02;100950.21;3549826;81;98879;-78
2022/04/12 00:47:04;;;;;;;33.10;18.67;;;;;;;0.20;87.06;100945.70;3541367;82;98872;-79
2022/04/12 00:52:07;;;;;;;31.07;18.37;;;;;;;0.17;87.16;100950.36;3542689;82;99207;-79
2022/04/12 00:57:08;;;;;;;34.95;18.95;;;;;;;0.11;87.38;100952.90;3541128;81;98844;-78
2022/04/12 01:02:09;;;;;;;29.13;19.00;;;;;;;0.09;87.09;100957.78;3547489;81;35977;-78
2022/04/12 01:07:11;;;;;;;33.70;20.62;;;;;;;0.08;87.53;100949.42;3485690;83;99164;-75
2022/04/12 01:12:12;;;;;;;32.23;18.62;;;;;;;0.03;87.75;100945.44;3477409;83;98713;-78
2022/04/12 01:17:15;;;;;;;38.00;22.10;;;;;;;0.00;87.58;100954.16;3453541;83;98867;-78
2022/04/12 01:22:21;;;;;;;35.53;21.73;;;;;;;-0.01;87.27;100959.29;3592254;81;98774;-79
2022/04/12 01:27:22;;;;;;;33.78;21.87;;;;;;;-0.02;87.40;100958.25;3586638;81;99446;-79
2022/04/12 01:32:25;;;;;;;37.07;21.03;;;;;;;-0.04;87.42;100963.95;3570145;82;34870;-78
2022/04/12 01:37:26;;;;;;;36.57;20.83;;;;;;;-0.06;87.75;100956.66;3580413;81;98717;-78
2022/04/12 01:42:27;;;;;;;33.57;19.50;;;;;;;-0.10;87.89;100969.97;3592843;81;98946;-77
2022/04/12 01:47:29;;;;;;;30.03;17.43;;;;;;;-0.13;87.96;100964.92;3586478;80;98958;-78
2022/04/12 01:52:30;;;;;;;26.53;16.00;;;;;;;-0.18;88.10;100963.64;3601318;80;99032;-76
2022/04/12 01:57:31;;;;;;;27.87;14.43;;;;;;;-0.24;88.09;100962.10;3586613;82;99035;-79
2022/04/12 02:02:32;;;;;;;30.67;15.63;;;;;;;-0.30;88.03;100965.41;3600344;80;34919;-79
2022/04/12 02:07:33;;;;;;;40.70;19.37;;;;;;;-0.31;87.92;100964.59;3571752;81;98968;-79
2022/04/12 02:12:34;;;;;;;34.43;17.17;;;;;;;-0.32;87.67;100962.75;3576472;81;98787;-79
2022/04/12 02:17:35;;;;;;;36.07;17.43;;;;;;;-0.34;88.17;100963.59;3573751;81;98881;-78
2022/04/12 02:22:37;;;;;;;41.07;19.00;;;;;;;-0.37;87.95;100954.70;3575465;81;99387;-79
2022/04/12 02:27:38;;;;;;;34.67;18.50;;;;;;;-0.40;88.30;100960.14;3551803;82;99030;-76
2022/04/12 02:32:40;;;;;;;31.87;16.50;;;;;;;-0.44;88.54;100963.16;3580475;80;35358;-78
2022/04/12 02:37:41;;;;;;;31.13;16.60;;;;;;;-0.49;88.31;100965.97;3573404;80;99044;-79
2022/04/12 02:42:42;;;;;;;25.67;14.43;;;;;;;-0.52;88.33;100953.55;3576017;82;98994;-78
2022/04/12 02:47:43;;;;;;;29.10;14.80;;;;;;;-0.54;88.38;100969.27;3574907;80;99443;-79
2022/04/12 02:52:44;;;;;;;28.17;13.70;;;;;;;-0.57;88.17;100966.59;3568564;81;99146;-78
2022/04/12 02:57:45;;;;;;;26.87;14.53;;;;;;;-0.60;87.96;100969.86;3565022;81;99179;-79
2022/04/12 03:02:46;;;;;;;25.90;13.67;;;;;;;-0.61;88.08;100973.67;3579870;80;99605;-79
2022/04/12 03:07:46;;;;;;;27.70;13.88;;;;;;;-0.63;88.03;100966.94;3575566;80;98671;-78
2022/04/12 03:12:47;;;;;;;25.00;12.60;;;;;;;-0.69;88.04;100971.63;3578725;80;99039;-79
2022/04/12 03:17:48;;;;;;;23.97;12.43;;;;;;;-0.68;87.98;100979.16;3572885;81;99192;-78
2022/04/12 03:22:49;;;;;;;25.40;13.63;;;;;;;-0.74;88.74;100976.27;3579967;81;99211;-78
2022/04/12 03:27:50;;;;;;;25.67;13.63;;;;;;;-0.78;88.54;100968.50;3579809;80;99680;-78
2022/04/12 03:32:51;;;;;;;28.62;15.23;;;;;;;-0.80;88.84;100973.38;3571152;82;99144;-78
2022/04/12 03:37:52;;;;;;;31.53;15.93;;;;;;;-0.83;88.79;100976.11;3573266;81;98695;-78
2022/04/12 03:42:54;;;;;;;28.73;17.60;;;;;;;-0.83;89.57;100971.27;3576467;81;98995;-78
2022/04/12 03:47:55;;;;;;;28.37;14.87;;;;;;;-0.86;89.38;100969.13;3555188;82;99289;-78
2022/04/12 03:52:56;;;;;;;27.13;14.53;;;;;;;-0.88;88.79;100971.33;3596478;80;99216;-77
2022/04/12 03:58:01;;;;;;;28.93;14.10;;;;;;;-0.91;88.91;100978.11;3575262;80;99197;-77
2022/04/12 04:03:02;;;;;;;24.33;13.20;;;;;;;-0.92;88.79;100978.39;3569708;80;99168;-77
2022/04/12 04:08:03;;;;;;;27.07;13.33;;;;;;;-0.94;89.27;100982.72;3611432;80;98714;-76
2022/04/12 04:13:08;;;;;;;24.27;12.07;;;;;;;-0.96;89.08;100984.92;3598395;80;99104;-76
2022/04/12 04:18:08;;;;;;;22.58;12.00;;;;;;;-0.99;89.09;100984.12;3583053;81;98916;-77
2022/04/12 04:23:10;;;;;;;21.47;11.57;;;;;;;-1.00;88.64;100993.89;3562011;80;99506;-77
2022/04/12 04:28:12;;;;;;;26.60;13.93;;;;;;;-1.01;88.96;100991.72;3590486;81;99193;-77
2022/04/12 04:33:14;;;;;;;25.27;13.78;;;;;;;-1.01;89.50;100994.95;3584967;80;99129;-77
2022/04/12 04:38:15;;;;;;;24.67;13.40;;;;;;;-1.01;89.10;101002.53;3586609;80;98875;-77
2022/04/12 04:43:17;;;;;;;26.50;15.57;;;;;;;-0.99;89.07;101002.25;3588501;81;99022;-76
2022/04/12 04:48:18;;;;;;;29.07;14.50;;;;;;;-1.00;89.26;101000.08;3472658;83;99318;-77
2022/04/12 04:53:19;;;;;;;29.23;15.17;;;;;;;-0.99;89.91;101004.38;3576360;80;99281;-77
2022/04/12 04:58:19;;;;;;;26.83;13.97;;;;;;;-0.96;89.82;101006.53;3571748;81;99372;-78
2022/04/12 05:03:20;;;;;;;26.10;15.10;;;;;;;-0.93;90.42;101009.98;3586247;81;99165;-77
2022/04/12 05:08:22;;;;;;;48.47;19.20;;;;;;;-0.89;90.40;101019.14;3542107;81;98892;-77
2022/04/12 05:13:23;;;;;;;41.37;17.13;;;;;;;-0.83;90.72;101030.71;3545054;82;99028;-77
2022/04/12 05:18:23;;;;;;;46.67;21.83;;;;;;;-0.78;91.26;101034.14;3532922;81;99031;-75
2022/04/12 05:23:24;;;;;;;74.47;29.83;;;;;;;-0.71;92.46;101038.66;3518602;80;99557;-75
2022/04/12 05:28:25;;;;;;;54.20;25.10;;;;;;;-0.55;94.03;101044.14;3538903;80;99134;-75
2022/04/12 05:33:26;;;;;;;42.90;21.87;;;;;;;-0.32;95.57;101052.23;3543201;80;99438;-75
2022/04/12 05:38:27;;;;;;;35.08;19.98;;;;;;;-0.05;96.53;101061.09;3544485;81;98811;-76
2022/04/12 05:43:28;;;;;;;40.23;21.10;;;;;;;0.20;97.13;101063.43;3539337;82;99134;-75
2022/04/12 05:48:29;;;;;;;36.90;17.87;;;;;;;0.52;98.15;101065.66;3537178;81;99004;-73
2022/04/12 05:53:30;;;;;;;35.00;16.87;;;;;;;1.09;99.57;101068.48;3546346;81;99244;-76
2022/04/12 05:58:35;;;;;;;32.60;16.57;;;;;;;1.91;98.47;101075.53;3541587;81;99308;-76
2022/04/12 06:03:34;;;;;;;26.68;15.88;;;;;;;2.56;97.27;101075.41;3541830;82;99206;-77
2022/04/12 06:08:35;;;;;;;29.63;16.20;;;;;;;2.90;95.84;101085.16;3594692;80;98729;-76
2022/04/12 06:13:36;;;;;;;28.07;14.50;;;;;;;3.28;95.95;101088.48;3602375;80;98593;-76
2022/04/12 06:18:38;;;;;;;25.08;13.08;;;;;;;3.76;94.44;101089.33;3574053;81;99060;-76
2022/04/12 06:23:39;;;;;;;28.60;15.43;;;;;;;4.27;92.96;101086.70;3601361;80;99176;-77
2022/04/12 06:28:40;;;;;;;32.73;14.60;;;;;;;4.48;91.88;101090.41;3570075;81;99254;-77
2022/04/12 06:33:41;;;;;;;24.13;12.00;;;;;;;4.81;90.53;101098.92;3597906;80;98862;-76
2022/04/12 06:38:42;;;;;;;22.15;11.85;;;;;;;5.08;88.97;101093.11;3606556;80;98789;-76
2022/04/12 06:43:43;;;;;;;19.67;10.90;;;;;;;5.41;88.12;101096.29;3577177;80;99179;-76
2022/04/12 06:48:44;;;;;;;23.07;11.00;;;;;;;5.65;87.11;101097.91;3593414;80;98876;-75
2022/04/12 06:53:45;;;;;;;20.13;10.80;;;;;;;5.79;85.61;101095.73;3606737;81;98850;-75
2022/04/12 06:58:46;;;;;;;21.60;12.43;;;;;;;6.10;84.51;101097.61;3599278;80;98738;-76
2022/04/12 07:03:47;;;;;;;23.47;14.73;;;;;;;6.12;83.84;101100.80;3577646;82;98730;-76
2022/04/12 07:08:48;;;;;;;27.27;13.80;;;;;;;6.41;81.88;101104.08;3555019;81;98762;-75
2022/04/12 07:13:49;;;;;;;23.23;12.27;;;;;;;6.63;81.84;101111.39;3552787;80;34387;-75
2022/04/12 07:18:50;;;;;;;23.43;10.97;;;;;;;6.75;81.30;101113.38;3553253;81;98604;-74
2022/04/12 07:23:51;;;;;;;21.73;9.90;;;;;;;7.00;79.59;101111.80;3557411;81;98849;-75
2022/04/12 07:28:51;;;;;;;20.37;11.50;;;;;;;7.20;78.51;101104.09;3550138;81;98745;-75
2022/04/12 07:33:53;;;;;;;24.87;13.17;;;;;;;7.45;78.13;101104.95;3527951;82;98726;-76
2022/04/12 07:38:54;;;;;;;28.93;14.83;;;;;;;7.70;76.95;101116.19;3546998;81;98746;-77
2022/04/12 07:43:54;;;;;;;19.50;10.93;;;;;;;7.89;74.69;101113.11;3558642;81;33199;-76
2022/04/12 07:48:55;;;;;;;25.80;14.67;;;;;;;7.96;75.69;101111.19;3549938;81;98731;-76
2022/04/12 07:53:57;;;;;;;27.30;13.93;;;;;;;8.11;74.93;101116.77;3522383;81;98772;-74
2022/04/12 07:58:57;;;;;;;20.37;9.18;;;;;;;8.28;75.51;101128.11;3547904;81;98879;-76
2022/04/12 08:03:58;;;;;;;15.50;7.97;;;;;;;8.41;73.96;101133.80;3557282;81;98691;-75
2022/04/12 08:08:59;;;;;;;15.63;6.93;;;;;;;8.60;72.20;101125.73;3554846;81;99064;-76
2022/04/12 08:14:00;;;;;;;12.67;5.93;;;;;;;8.79;70.90;101129.45;3551904;81;98855;-76
2022/04/12 08:19:01;;;;;;;16.02;6.12;;;;;;;9.00;70.85;101132.03;3555820;81;98730;-75
2022/04/12 08:24:03;;;;;;;15.90;7.73;;;;;;;9.18;69.42;101132.77;3549987;81;98593;-75
2022/04/12 08:29:05;;;;;;;18.23;8.70;;;;;;;9.39;67.72;101133.91;3555380;81;99018;-76
2022/04/12 08:34:06;;;;;;;17.37;7.50;;;;;;;9.79;69.15;101129.06;3549645;81;100375;-75
2022/04/12 08:39:07;;;;;;;16.80;8.50;;;;;;;10.22;67.87;101133.92;3556218;82;98984;-76
2022/04/12 08:44:08;;;;;;;21.50;11.93;;;;;;;10.88;69.49;101142.88;3552047;82;99062;-75
2022/04/12 08:49:09;;;;;;;17.23;8.70;;;;;;;11.83;69.67;101138.63;3556958;81;99294;-78
2022/04/12 08:54:11;;;;;;;17.85;8.10;;;;;;;12.83;65.70;101141.16;3550386;81;98890;-76
2022/04/12 08:59:12;;;;;;;18.50;7.77;;;;;;;13.66;66.94;101144.72;3555091;81;99451;-76
2022/04/12 09:04:13;;;;;;;11.20;4.90;;;;;;;14.77;66.23;101147.59;3552835;81;99052;-76
2022/04/12 09:09:18;;;;;;;10.97;5.40;;;;;;;15.69;63.39;101148.16;3581498;81;98980;-77
2022/04/12 09:14:19;;;;;;;12.28;5.70;;;;;;;16.36;61.45;101142.03;3561448;81;99070;-77
2022/04/12 09:19:45;;;;;;;11.60;4.80;;;;;;;17.32;59.18;101151.70;3583765;80;98841;-76
2022/04/12 09:25:01;;;;;;;10.10;4.83;;;;;;;18.05;56.72;101141.52;3571368;81;98955;-77
2022/04/12 09:30:12;;;;;;;10.17;5.07;;;;;;;18.64;55.55;101145.78;3585362;82;99426;-77
2022/04/12 09:35:14;;;;;;;11.57;4.85;;;;;;;19.06;51.45;101137.53;3556691;82;99071;-79
2022/04/12 09:40:17;;;;;;;10.35;4.95;;;;;;;19.23;49.44;101129.60;3586285;81;98933;-77
2022/04/12 09:45:26;;;;;;;11.45;4.60;;;;;;;19.25;49.21;101145.31;3583973;80;99066;-76
2022/04/12 09:50:30;;;;;;;7.85;4.28;;;;;;;19.62;48.62;101143.19;3587158;82;25816;-76
2022/04/12 09:55:45;;;;;;;11.38;5.03;;;;;;;19.74;47.59;101145.42;3576037;80;98769;-77
2022/04/12 10:00:49;;;;;;;9.18;4.37;;;;;;;20.02;46.30;101138.00;3585102;81;98812;-77
2022/04/12 10:05:51;;;;;;;9.15;4.65;;;;;;;20.50;46.10;101123.61;3575189;81;98891;-76
2022/04/12 10:10:53;;;;;;;8.55;4.60;;;;;;;20.79;44.96;101119.85;3544840;82;98906;-77
2022/04/12 10:15:54;;;;;;;8.98;4.83;;;;;;;20.95;41.81;101114.37;3542511;81;98961;-77
2022/04/12 10:20:57;;;;;;;8.90;4.50;;;;;;;20.71;41.14;101117.00;3538037;81;98835;-78
2022/04/12 10:25:59;;;;;;;9.03;4.78;;;;;;;20.55;41.20;101108.52;3539675;82;98529;-77
2022/04/12 10:31:17;;;;;;;10.35;4.50;;;;;;;20.42;40.46;101114.56;3524911;81;99168;-76
2022/04/12 10:36:18;;;;;;;10.32;5.03;;;;;;;20.85;40.67;101094.95;3538539;81;99244;-76
2022/04/12 10:41:33;;;;;;;11.33;4.50;;;;;;;21.13;40.22;101098.58;3547325;81;99084;-77
2022/04/12 10:46:51;;;;;;;10.23;5.05;;;;;;;21.09;36.99;101091.66;3538585;81;99003;-77
2022/04/12 10:52:01;;;;;;;10.28;4.30;;;;;;;21.03;38.32;101092.00;3545322;81;99014;-78
2022/04/12 10:57:23;;;;;;;10.78;4.87;;;;;;;21.14;38.88;101084.79;3531720;82;99040;-77
2022/04/12 11:02:30;;;;;;;8.58;4.20;;;;;;;21.63;37.79;101080.86;3545742;82;33965;-76
2022/04/12 11:07:36;;;;;;;9.40;4.72;;;;;;;21.68;36.73;101074.77;3557251;81;98622;-77
2022/04/12 11:12:44;;;;;;;;;;;;;;;21.20;36.34;101077.45;3599911;82;98973;-77
2022/04/12 11:17:46;;;;;;;9.03;4.40;;;;;;;21.49;34.45;101063.78;3593212;81;85110;-77
2022/04/12 11:22:56;;;;;;;9.55;4.12;;;;;;;21.61;36.34;101080.49;3599807;81;98880;-76
2022/04/12 11:27:59;;;;;;;11.18;5.08;;;;;;;20.98;35.60;101072.14;3590261;80;98916;-78
2022/04/12 11:33:00;;;;;;;9.73;4.35;;;;;;;21.27;36.44;101073.09;3589697;81;99391;-77
2022/04/12 11:38:06;;;;;;;10.40;5.30;;;;;;;21.53;35.56;101064.46;3594616;81;98346;-78
2022/04/12 11:43:22;;;;;;;10.50;5.12;;;;;;;21.37;34.07;101060.86;3604049;81;99267;-75
2022/04/12 11:48:29;;;;;;;9.23;4.55;;;;;;;21.16;35.30;101051.54;3599279;80;98787;-76
2022/04/12 11:53:31;;;;;;;9.43;4.67;;;;;;;21.29;34.44;101050.43;3609965;80;98810;-77
2022/04/12 11:58:32;;;;;;;11.30;5.30;;;;;;;21.03;34.84;101045.05;3598247;81;98975;-77
2022/04/12 12:03:38;;;;;;;9.70;5.13;;;;;;;21.18;34.66;101038.69;3597542;80;99455;-77
2022/04/12 12:08:39;;;;;;;9.53;4.45;;;;;;;20.56;33.83;101043.59;3573575;80;98899;-77
2022/04/12 12:13:40;;;;;;;8.77;4.83;;;;;;;20.21;34.20;101041.48;3555701;82;98654;-78
2022/04/12 12:18:41;;;;;;;10.90;4.87;;;;;;;20.15;32.83;101045.36;3549680;81;98742;-76
2022/04/12 12:23:42;;;;;;;12.67;5.43;;;;;;;20.08;34.58;101032.92;3555327;81;98939;-76
2022/04/12 12:28:43;;;;;;;15.03;5.33;;;;;;;19.82;34.33;101047.72;3543494;81;98984;-76
2022/04/12 12:33:45;;;;;;;8.63;4.80;;;;;;;19.75;33.80;101034.47;3556482;81;99459;-76
2022/04/12 12:38:46;;;;;;;11.00;4.70;;;;;;;19.70;33.55;101038.55;3516637;81;98667;-76
2022/04/12 12:43:57;;;;;;;10.07;5.50;;;;;;;18.93;35.75;101006.80;3556867;81;98679;-76
2022/04/12 12:49:13;;;;;;;9.50;5.37;;;;;;;19.28;35.13;101027.23;3543486;81;98830;-77
2022/04/12 12:54:18;;;;;;;10.88;5.00;;;;;;;19.25;34.76;101027.50;3545647;81;98999;-77
2022/04/12 12:59:23;;;;;;;12.90;5.28;;;;;;;18.87;34.41;101029.39;3542287;81;99018;-79
2022/04/12 13:04:31;;;;;;;13.33;6.13;;;;;;;18.89;35.05;101032.54;3541251;81;99033;-78
2022/04/12 13:09:42;;;;;;;13.20;5.62;;;;;;;18.86;34.20;101006.89;3430673;82;99141;-79
2022/04/12 13:14:44;;;;;;;12.83;5.17;;;;;;;18.55;33.61;101019.23;3524682;82;99108;-80
2022/04/12 13:19:45;;;;;;;10.28;4.85;;;;;;;18.31;35.89;101015.49;3536294;82;98621;-79
2022/04/12 13:24:46;;;;;;;9.97;4.93;;;;;;;18.50;34.73;101019.69;3536688;81;98996;-79
2022/04/12 13:29:48;;;;;;;10.47;5.17;;;;;;;18.15;35.16;100997.16;3541735;82;98926;-79
2022/04/12 13:34:50;;;;;;;11.73;5.50;;;;;;;18.15;35.16;100997.16;3513419;79;99219;-78
2022/04/12 13:39:51;;;;;;;8.58;4.72;;;;;;;17.90;34.17;101018.91;3530688;82;98970;-77
2022/04/12 13:44:55;;;;;;;9.97;5.47;;;;;;;17.98;35.74;101016.23;3520425;80;98786;-78
2022/04/12 13:49:57;;;;;;;9.55;5.30;;;;;;;18.00;35.73;101006.88;3544655;80;33230;-77
2022/04/12 13:54:59;;;;;;;12.07;6.28;;;;;;;18.06;36.12;101002.44;3503455;82;99293;-77
2022/04/12 14:00:00;;;;;;;11.25;6.35;;;;;;;18.14;36.13;100997.59;3529233;82;98282;-77
2022/04/12 14:05:02;;;;;;;11.43;5.90;;;;;;;18.28;36.46;100984.30;3523492;82;99103;-77
2022/04/12 14:10:04;;;;;;;13.13;5.95;;;;;;;18.21;36.62;100980.79;3517043;82;99139;-78
2022/04/12 14:15:06;;;;;;;12.90;7.33;;;;;;;18.12;36.90;100979.89;3507270;83;99287;-77
2022/04/12 14:20:08;;;;;;;12.40;7.03;;;;;;;17.85;35.19;100974.80;3492160;84;33280;-76
2022/04/12 14:25:10;;;;;;;15.23;6.72;;;;;;;17.43;35.57;100971.00;3484607;83;98852;-78
2022/04/12 14:30:11;;;;;;;15.68;7.78;;;;;;;17.02;34.71;100972.87;3491555;83;98842;-75
2022/04/12 14:35:12;;;;;;;13.70;6.45;;;;;;;16.84;36.18;100973.56;3485774;82;99040;-76
2022/04/12 14:40:13;;;;;;;11.73;6.20;;;;;;;16.91;37.21;100981.88;3465540;83;99025;-75
2022/04/12 14:45:14;;;;;;;13.73;6.90;;;;;;;16.30;35.44;100980.34;3486554;83;99071;-76
2022/04/12 14:50:18;;;;;;;14.33;7.63;;;;;;;16.23;37.36;100965.87;3492602;84;32066;-76
2022/04/12 14:55:19;;;;;;;18.17;7.05;;;;;;;15.93;37.00;100973.10;3485060;83;98908;-76
2022/04/12 15:00:21;;;;;;;12.70;6.73;;;;;;;15.82;36.18;100971.75;3479552;83;98945;-77
2022/04/12 15:05:22;;;;;;;11.20;6.35;;;;;;;15.46;36.06;100974.34;3484472;84;99043;-75
2022/04/12 15:10:23;;;;;;;12.83;6.97;;;;;;;15.09;36.57;100969.72;3461042;83;99080;-76
2022/04/12 15:15:25;;;;;;;11.60;5.60;;;;;;;14.88;36.46;100969.68;3474787;84;98927;-76
2022/04/12 15:20:26;;;;;;;11.25;6.37;;;;;;;14.70;37.36;100975.78;3461052;84;33769;-78
2022/04/12 15:25:28;;;;;;;15.72;6.08;;;;;;;14.59;36.44;100974.95;3470456;83;98934;-77
2022/04/12 15:30:30;;;;;;;13.93;5.83;;;;;;;14.52;37.97;100983.24;3480984;83;98888;-76
2022/04/12 15:35:31;;;;;;;9.53;5.90;;;;;;;14.54;37.89;100991.14;3470326;83;99114;-76
2022/04/12 15:40:33;;;;;;;11.43;6.97;;;;;;;14.32;37.52;100993.03;3475737;83;98817;-79
2022/04/12 15:45:34;;;;;;;11.88;6.08;;;;;;;14.23;37.12;100993.97;3455142;84;99204;-78
2022/04/12 15:50:37;;;;;;;14.53;6.30;;;;;;;14.03;36.79;100990.47;3482317;84;26858;-77
2022/04/12 15:55:38;;;;;;;16.20;5.25;;;;;;;13.90;38.05;100991.38;3452761;84;99254;-78
2022/04/12 16:00:39;;;;;;;13.67;6.43;;;;;;;13.80;38.29;100992.70;3482384;83;98951;-78
2022/04/12 16:05:40;;;;;;;12.43;5.80;;;;;;;13.80;37.88;100991.31;3475413;84;99123;-77
2022/04/12 16:10:41;;;;;;;11.40;6.50;;;;;;;13.69;36.48;100984.30;3474274;83;99073;-77
2022/04/12 16:15:42;;;;;;;11.63;5.90;;;;;;;13.55;37.39;100989.75;3463792;83;99039;-76
2022/04/12 16:20:43;;;;;;;12.17;6.33;;;;;;;13.50;37.58;100994.25;3470232;83;31651;-79
2022/04/12 16:25:46;;;;;;;12.30;6.37;;;;;;;13.40;38.14;100992.78;3457750;83;98840;-76
2022/04/12 16:30:47;;;;;;;11.30;5.70;;;;;;;13.31;38.11;100995.06;3458009;83;98934;-75
2022/04/12 16:35:48;;;;;;;13.68;6.80;;;;;;;13.40;39.79;101012.14;3444437;83;99079;-76
2022/04/12 16:40:49;;;;;;;15.07;7.50;;;;;;;13.50;39.61;101003.12;3444994;84;99077;-75
2022/04/12 16:45:50;;;;;;;13.73;8.10;;;;;;;13.45;39.29;101014.53;3451378;83;99090;-78
2022/04/12 16:50:52;;;;;;;13.70;6.90;;;;;;;13.36;38.97;101023.14;3465150;83;99760;-77
2022/04/12 16:55:56;;;;;;;15.37;7.63;;;;;;;13.38;39.71;101020.00;3483496;83;99338;-74
2022/04/12 17:00:56;;;;;;;14.47;6.97;;;;;;;13.31;38.91;101014.42;3483216;83;98840;-77
2022/04/12 17:05:57;;;;;;;15.03;7.50;;;;;;;13.23;40.15;101021.84;3482513;83;99080;-77
2022/04/12 17:10:58;;;;;;;12.07;7.13;;;;;;;13.21;40.09;101023.40;3454426;83;99139;-76
2022/04/12 17:15:59;;;;;;;13.40;8.63;;;;;;;13.09;39.89;101025.84;3497110;83;99110;-77
2022/04/12 17:21:00;;;;;;;19.40;9.50;;;;;;;12.99;40.07;101025.16;3510898;83;104441;-74
2022/04/12 17:26:01;;;;;;;16.10;7.80;;;;;;;12.91;41.11;101013.00;3496927;83;99191;-76
2022/04/12 17:31:02;;;;;;;17.93;8.53;;;;;;;12.82;41.44;101013.27;3493799;83;98892;-75
2022/04/12 17:36:05;;;;;;;16.90;9.40;;;;;;;12.68;41.67;101021.41;3488817;82;99445;-74
2022/04/12 17:41:06;;;;;;;15.63;9.23;;;;;;;12.52;41.76;101023.58;3469306;83;99066;-76
2022/04/12 17:46:07;;;;;;;13.88;7.65;;;;;;;12.36;41.65;101026.31;3486723;83;99280;-77
2022/04/12 17:51:09;;;;;;;19.93;11.00;;;;;;;12.19;42.28;101023.53;3525200;82;99055;-75
2022/04/12 17:56:10;;;;;;;19.03;10.53;;;;;;;12.08;42.33;101030.06;3513481;82;98867;-75
2022/04/12 18:01:13;;;;;;;23.07;11.30;;;;;;;11.97;42.68;101031.86;3502949;82;99201;-76
2022/04/12 18:06:14;;;;;;;17.32;9.13;;;;;;;11.81;42.92;101037.55;3481670;83;99412;-76
2022/04/12 18:11:15;;;;;;;16.70;9.50;;;;;;;11.62;43.28;101023.83;3517163;82;99060;-76
2022/04/12 18:16:16;;;;;;;21.83;10.30;;;;;;;11.54;43.59;101026.23;3506603;81;99056;-77
2022/04/12 18:21:17;;;;;;;21.40;10.33;;;;;;;11.34;44.04;101034.35;3489565;82;99234;-76
2022/04/12 18:26:18;;;;;;;19.27;11.23;;;;;;;11.17;44.25;101046.45;3509122;82;99420;-76
2022/04/12 18:31:20;;;;;;;23.50;10.77;;;;;;;11.00;44.79;101030.37;3505506;82;99590;-75
2022/04/12 18:36:21;;;;;;;21.67;10.90;;;;;;;10.87;45.21;101035.83;3511985;81;99191;-75
2022/04/12 18:41:22;;;;;;;22.63;11.97;;;;;;;10.71;45.88;101038.68;3499291;80;99272;-76
2022/04/12 18:46:26;;;;;;;22.93;11.97;;;;;;;10.55;45.90;101046.21;3512800;80;99363;-75
2022/04/12 18:51:26;;;;;;;25.03;11.73;;;;;;;10.39;46.10;101050.98;3524572;81;99170;-75
2022/04/12 18:56:28;;;;;;;22.77;12.23;;;;;;;10.21;46.29;101044.30;3513693;82;99351;-75
2022/04/12 19:01:33;;;;;;;20.43;10.43;;;;;;;10.07;46.67;101052.78;3516540;80;98979;-75
2022/04/12 19:06:32;;;;;;;16.65;9.45;;;;;;;9.91;46.87;101058.86;3514441;81;99427;-74
2022/04/12 19:11:33;;;;;;;17.50;9.40;;;;;;;9.78;47.18;101061.50;3547456;80;98712;-75
2022/04/12 19:16:34;;;;;;;24.37;11.10;;;;;;;9.64;47.46;101059.77;3575897;80;98974;-75
2022/04/12 19:21:35;;;;;;;27.40;12.00;;;;;;;9.50;47.61;101065.73;3569394;80;98896;-75
2022/04/12 19:26:36;;;;;;;52.97;21.37;;;;;;;9.39;47.91;101067.98;3575184;80;98890;-75
2022/04/12 19:31:37;;;;;;;56.87;26.47;;;;;;;9.25;48.21;101067.03;3567697;80;99144;-77
2022/04/12 19:36:38;;;;;;;40.20;17.13;;;;;;;9.11;48.08;101061.15;3582110;80;98825;-78
2022/04/12 19:41:39;;;;;;;27.05;12.33;;;;;;;9.03;48.32;101070.36;3567697;80;98826;-77
2022/04/12 19:46:40;;;;;;;21.37;9.90;;;;;;;8.92;48.48;101067.08;3570060;82;99099;-78
2022/04/12 19:51:44;;;;;;;21.50;10.47;;;;;;;8.84;48.61;101057.06;3542389;81;98674;-78
2022/04/12 19:56:45;;;;;;;23.17;10.10;;;;;;;8.75;49.00;101067.39;3580456;82;98829;-77
2022/04/12 20:01:46;;;;;;;30.03;12.67;;;;;;;8.65;49.25;101061.83;3582907;81;98480;-77
2022/04/12 20:06:47;;;;;;;22.90;10.17;;;;;;;8.57;49.63;101057.27;3575604;80;99130;-76
2022/04/12 20:11:48;;;;;;;20.83;9.10;;;;;;;8.47;50.07;101057.78;3591489;81;98857;-76
2022/04/12 20:16:50;;;;;;;18.60;7.67;;;;;;;8.41;50.30;101059.14;3593653;80;98765;-78
2022/04/12 20:21:51;;;;;;;16.43;8.60;;;;;;;8.33;50.93;101060.66;3529928;81;98710;-77
2022/04/12 20:26:52;;;;;;;18.13;8.53;;;;;;;8.27;51.18;101071.64;3525105;80;98982;-77
2022/04/12 20:31:53;;;;;;;18.30;8.47;;;;;;;8.19;51.49;101063.73;3532436;82;31725;-77
2022/04/12 20:36:54;;;;;;;17.07;9.07;;;;;;;7.91;52.02;101023.12;3522216;82;98783;-77
2022/04/12 20:41:57;;;;;;;17.73;8.07;;;;;;;8.04;52.25;101064.47;3531669;82;98681;-78
2022/04/12 20:46:58;;;;;;;21.97;10.07;;;;;;;7.98;52.47;101067.77;3526902;82;99018;-77
2022/04/12 20:51:59;;;;;;;17.53;7.53;;;;;;;7.91;52.78;101062.08;3532159;82;98901;-77
2022/04/12 20:57:00;;;;;;;18.37;8.20;;;;;;;7.82;53.03;101058.09;3525819;81;98737;-75
2022/04/12 21:02:01;;;;;;;17.32;7.65;;;;;;;7.74;53.43;101048.61;3532628;82;28816;-77
2022/04/12 21:07:03;;;;;;;15.83;7.83;;;;;;;7.66;53.77;101053.63;3525295;81;98694;-75
2022/04/12 21:12:06;;;;;;;15.10;7.63;;;;;;;7.59;53.91;101053.40;3503697;82;99100;-76
2022/04/12 21:17:08;;;;;;;18.23;9.30;;;;;;;7.51;54.12;101050.18;3520363;82;98702;-77
2022/04/12 21:22:09;;;;;;;17.50;8.38;;;;;;;7.43;54.38;101053.28;3533527;82;98738;-77
2022/04/12 21:27:10;;;;;;;16.17;8.68;;;;;;;7.33;54.63;101048.24;3525281;82;98748;-77
2022/04/12 21:32:10;;;;;;;16.23;7.97;;;;;;;7.27;54.91;101048.23;3530441;82;31642;-76
2022/04/12 21:37:11;;;;;;;18.57;8.13;;;;;;;7.21;55.00;101044.09;3520191;82;98502;-76
2022/04/12 21:42:13;;;;;;;16.93;9.73;;;;;;;7.14;55.57;101045.81;3530399;80;98511;-79
2022/04/12 21:47:14;;;;;;;23.67;10.77;;;;;;;7.08;55.77;101051.25;3487344;83;98772;-76
2022/04/12 21:52:15;;;;;;;27.27;10.13;;;;;;;7.01;55.71;101050.45;3594620;80;98863;-76
2022/04/12 21:57:16;;;;;;;20.87;9.17;;;;;;;7.01;55.87;101071.53;3584609;81;98938;-77
2022/04/12 22:02:17;;;;;;;25.80;10.00;;;;;;;6.97;56.01;101069.23;3601626;81;31561;-75
2022/04/12 22:07:18;;;;;;;25.27;10.23;;;;;;;6.89;56.27;101061.36;3597405;80;98883;-76
2022/04/12 22:12:18;;;;;;;24.23;10.33;;;;;;;6.83;56.56;101059.95;3594345;81;98733;-76
2022/04/12 22:17:19;;;;;;;22.50;10.30;;;;;;;6.74;56.91;101074.85;3573822;81;99103;-76
2022/04/12 22:22:21;;;;;;;21.57;10.17;;;;;;;6.65;57.24;101087.23;3573232;82;98781;-74
2022/04/12 22:27:21;;;;;;;20.20;10.60;;;;;;;6.57;57.62;101091.41;3571503;81;98858;-76
2022/04/12 22:32:22;;;;;;;22.90;9.93;;;;;;;6.49;57.77;101090.92;3576281;82;35394;-76
2022/04/12 22:37:23;;;;;;;20.13;10.53;;;;;;;6.42;58.01;101101.02;3569795;80;98550;-76
2022/04/12 22:42:24;;;;;;;21.73;10.50;;;;;;;6.36;58.09;101111.92;3580034;81;98646;-77
2022/04/12 22:47:25;;;;;;;21.03;10.57;;;;;;;6.29;58.52;101113.02;3551126;81;98882;-77
2022/04/12 22:52:26;;;;;;;20.00;9.97;;;;;;;6.21;58.72;101106.24;3578884;82;98969;-77
2022/04/12 22:57:27;;;;;;;19.40;10.80;;;;;;;6.14;58.85;101097.19;3574915;82;99070;-77
2022/04/12 23:02:28;;;;;;;23.10;12.37;;;;;;;6.09;58.93;101100.11;3579493;81;34855;-76
2022/04/12 23:07:31;;;;;;;22.17;11.20;;;;;;;6.09;59.08;101091.91;3575233;81;99097;-77